sensor_id;sensor_type;location;lat;lon;timestamp;temperature;humidity
38239;DHT22;24035;48.900;9.188;2024-03-02T00:02:15;5.70;1.00
38239;DHT22;24035;48.900;9.188;2024-03-02T00:04:44;5.70;1.00
38239;DHT22;24035;48.900;9.188;2024-03-02T00:07:14;5.60;99.90
38239;DHT22;24035;48.900;9.188;2024-03-02T00:09:40;5.60;99.90
38239;DHT22;24035;48.900;9.188;2024-03-02T00:12:06;5.50;99.20
38239;DHT22;24035;48.900;9.188;2024-03-02T00:14:32;5.60;99.90
38239;DHT22;24035;48.900;9.188;2024-03-02T00:16:59;5.70;1.00
38239;DHT22;24035;48.900;9.188;2024-03-02T00:19:24;5.70;99.90
38239;DHT22;24035;48.900;9.188;2024-03-02T00:21:50;5.70;99.90
38239;DHT22;24035;48.900;9.188;2024-03-02T00:24:32;5.60;1.00
38239;DHT22;24035;48.900;9.188;2024-03-02T00:26:59;5.60;1.00
38239;DHT22;24035;48.900;9.188;2024-03-02T00:29:25;5.60;1.00
38239;DHT22;24035;48.900;9.188;2024-03-02T00:31:51;5.50;1.00
38239;DHT22;24035;48.900;9.188;2024-03-02T00:34:17;5.50;1.00
38239;DHT22;24035;48.900;9.188;2024-03-02T00:36:43;5.40;99.90
38239;DHT22;24035;48.900;9.188;2024-03-02T00:39:12;5.30;99.90
38239;DHT22;24035;48.900;9.188;2024-03-02T00:41:40;5.30;99.90
38239;DHT22;24035;48.900;9.188;2024-03-02T00:44:09;5.30;1.00
38239;DHT22;24035;48.900;9.188;2024-03-02T00:46:42;5.20;1.00
38239;DHT22;24035;48.900;9.188;2024-03-02T00:49:23;5.30;1.00
38239;DHT22;24035;48.900;9.188;2024-03-02T00:51:53;5.20;1.00
38239;DHT22;24035;48.900;9.188;2024-03-02T00:54:25;5.20;1.00
38239;DHT22;24035;48.900;9.188;2024-03-02T00:56:54;5.10;1.00
38239;DHT22;24035;48.900;9.188;2024-03-02T00:59:22;5.00;99.90
38239;DHT22;24035;48.900;9.188;2024-03-02T01:01:48;5.00;1.00
38239;DHT22;24035;48.900;9.188;2024-03-02T01:04:14;4.90;1.00
38239;DHT22;24035;48.900;9.188;2024-03-02T01:06:41;4.90;1.00
38239;DHT22;24035;48.900;9.188;2024-03-02T01:09:07;4.90;1.00
38239;DHT22;24035;48.900;9.188;2024-03-02T01:11:33;4.90;1.00
38239;DHT22;24035;48.900;9.188;2024-03-02T01:13:59;4.90;1.00
38239;DHT22;24035;48.900;9.188;2024-03-02T01:16:25;5.00;99.90
38239;DHT22;24035;48.900;9.188;2024-03-02T01:18:50;4.90;1.00
38239;DHT22;24035;48.900;9.188;2024-03-02T01:21:16;4.80;1.00
38239;DHT22;24035;48.900;9.188;2024-03-02T01:23:42;4.80;1.00
38239;DHT22;24035;48.900;9.188;2024-03-02T01:26:07;4.80;1.00
38239;DHT22;24035;48.900;9.188;2024-03-02T01:28:33;4.70;1.00
38239;DHT22;24035;48.900;9.188;2024-03-02T01:30:59;4.60;1.00
38239;DHT22;24035;48.900;9.188;2024-03-02T01:33:25;4.60;1.00
38239;DHT22;24035;48.900;9.188;2024-03-02T01:35:50;4.50;1.00
38239;DHT22;24035;48.900;9.188;2024-03-02T01:38:16;4.60;1.00
38239;DHT22;24035;48.900;9.188;2024-03-02T01:40:42;4.50;1.00
38239;DHT22;24035;48.900;9.188;2024-03-02T01:43:10;4.50;17.50
38239;DHT22;24035;48.900;9.188;2024-03-02T01:45:35;4.60;99.90
38239;DHT22;24035;48.900;9.188;2024-03-02T01:48:06;4.70;1.00
38239;DHT22;24035;48.900;9.188;2024-03-02T01:50:33;4.90;1.00
38239;DHT22;24035;48.900;9.188;2024-03-02T01:52:59;5.00;1.00
38239;DHT22;24035;48.900;9.188;2024-03-02T01:55:25;5.00;99.90
38239;DHT22;24035;48.900;9.188;2024-03-02T01:57:52;5.00;99.90
38239;DHT22;24035;48.900;9.188;2024-03-02T02:00:19;5.00;1.00
38239;DHT22;24035;48.900;9.188;2024-03-02T02:02:46;5.00;1.00
38239;DHT22;24035;48.900;9.188;2024-03-02T02:05:12;5.00;99.90
38239;DHT22;24035;48.900;9.188;2024-03-02T02:07:38;5.00;99.90
38239;DHT22;24035;48.900;9.188;2024-03-02T02:10:04;5.00;1.00
38239;DHT22;24035;48.900;9.188;2024-03-02T02:12:30;4.90;1.00
38239;DHT22;24035;48.900;9.188;2024-03-02T02:14:56;4.90;1.00
38239;DHT22;24035;48.900;9.188;2024-03-02T02:17:22;4.80;99.90
38239;DHT22;24035;48.900;9.188;2024-03-02T02:19:48;4.70;99.90
38239;DHT22;24035;48.900;9.188;2024-03-02T02:22:13;4.70;99.90
38239;DHT22;24035;48.900;9.188;2024-03-02T02:24:42;4.70;1.00
38239;DHT22;24035;48.900;9.188;2024-03-02T02:27:08;4.90;1.00
38239;DHT22;24035;48.900;9.188;2024-03-02T02:29:35;4.90;1.00
38239;DHT22;24035;48.900;9.188;2024-03-02T02:32:02;4.90;1.00
38239;DHT22;24035;48.900;9.188;2024-03-02T02:34:30;4.80;99.90
38239;DHT22;24035;48.900;9.188;2024-03-02T02:36:56;4.70;99.90
38239;DHT22;24035;48.900;9.188;2024-03-02T02:39:22;4.70;99.90
38239;DHT22;24035;48.900;9.188;2024-03-02T02:41:48;4.70;99.90
38239;DHT22;24035;48.900;9.188;2024-03-02T02:44:14;4.60;99.90
38239;DHT22;24035;48.900;9.188;2024-03-02T02:46:40;4.50;71.50
38239;DHT22;24035;48.900;9.188;2024-03-02T02:49:06;4.50;99.90
38239;DHT22;24035;48.900;9.188;2024-03-02T02:51:32;4.50;99.90
38239;DHT22;24035;48.900;9.188;2024-03-02T02:53:58;4.30;56.00
38239;DHT22;24035;48.900;9.188;2024-03-02T02:56:24;4.30;4.70
38239;DHT22;24035;48.900;9.188;2024-03-02T02:58:49;4.20;99.90
38239;DHT22;24035;48.900;9.188;2024-03-02T03:01:16;4.20;99.90
38239;DHT22;24035;48.900;9.188;2024-03-02T03:03:45;4.10;99.90
38239;DHT22;24035;48.900;9.188;2024-03-02T03:06:11;4.10;1.00
38239;DHT22;24035;48.900;9.188;2024-03-02T03:08:37;4.10;1.00
38239;DHT22;24035;48.900;9.188;2024-03-02T03:11:04;4.00;1.00
38239;DHT22;24035;48.900;9.188;2024-03-02T03:13:34;3.90;1.00
38239;DHT22;24035;48.900;9.188;2024-03-02T03:16:00;3.80;99.90
38239;DHT22;24035;48.900;9.188;2024-03-02T03:18:26;3.70;99.90
38239;DHT22;24035;48.900;9.188;2024-03-02T03:20:51;3.60;99.90
38239;DHT22;24035;48.900;9.188;2024-03-02T03:23:17;3.50;1.00
38239;DHT22;24035;48.900;9.188;2024-03-02T03:25:43;3.50;1.00
38239;DHT22;24035;48.900;9.188;2024-03-02T03:28:09;3.40;1.00
38239;DHT22;24035;48.900;9.188;2024-03-02T03:30:38;3.50;99.90
38239;DHT22;24035;48.900;9.188;2024-03-02T03:33:05;3.50;99.90
38239;DHT22;24035;48.900;9.188;2024-03-02T03:35:34;3.60;99.90
38239;DHT22;24035;48.900;9.188;2024-03-02T03:38:00;3.50;1.00
38239;DHT22;24035;48.900;9.188;2024-03-02T03:40:26;3.60;1.00
38239;DHT22;24035;48.900;9.188;2024-03-02T03:42:52;3.60;4.20
38239;DHT22;24035;48.900;9.188;2024-03-02T03:45:18;3.70;1.00
38239;DHT22;24035;48.900;9.188;2024-03-02T03:47:43;3.80;99.90
38239;DHT22;24035;48.900;9.188;2024-03-02T03:50:09;3.90;1.00
38239;DHT22;24035;48.900;9.188;2024-03-02T03:52:35;3.90;1.00
38239;DHT22;24035;48.900;9.188;2024-03-02T03:55:01;4.00;1.00
38239;DHT22;24035;48.900;9.188;2024-03-02T03:57:27;4.10;1.00
38239;DHT22;24035;48.900;9.188;2024-03-02T03:59:53;4.20;1.00
38239;DHT22;24035;48.900;9.188;2024-03-02T04:02:19;4.20;99.90
38239;DHT22;24035;48.900;9.188;2024-03-02T04:04:45;4.20;99.90
38239;DHT22;24035;48.900;9.188;2024-03-02T04:07:11;4.20;99.90
38239;DHT22;24035;48.900;9.188;2024-03-02T04:09:37;4.10;1.00
38239;DHT22;24035;48.900;9.188;2024-03-02T04:12:03;4.00;1.00
38239;DHT22;24035;48.900;9.188;2024-03-02T04:14:28;4.00;99.90
38239;DHT22;24035;48.900;9.188;2024-03-02T04:16:54;3.90;99.90
38239;DHT22;24035;48.900;9.188;2024-03-02T04:19:20;3.80;99.90
38239;DHT22;24035;48.900;9.188;2024-03-02T04:21:45;3.80;99.90
38239;DHT22;24035;48.900;9.188;2024-03-02T04:24:11;3.70;99.90
38239;DHT22;24035;48.900;9.188;2024-03-02T04:26:37;3.60;99.90
38239;DHT22;24035;48.900;9.188;2024-03-02T04:29:02;3.60;99.90
38239;DHT22;24035;48.900;9.188;2024-03-02T04:31:28;3.60;1.00
38239;DHT22;24035;48.900;9.188;2024-03-02T04:33:54;3.60;1.00
38239;DHT22;24035;48.900;9.188;2024-03-02T04:36:20;3.70;1.00
38239;DHT22;24035;48.900;9.188;2024-03-02T04:38:46;3.70;1.00
38239;DHT22;24035;48.900;9.188;2024-03-02T04:41:12;3.70;1.00
38239;DHT22;24035;48.900;9.188;2024-03-02T04:43:38;3.70;1.00
38239;DHT22;24035;48.900;9.188;2024-03-02T04:46:04;3.60;1.00
38239;DHT22;24035;48.900;9.188;2024-03-02T04:48:31;3.60;1.00
38239;DHT22;24035;48.900;9.188;2024-03-02T04:50:56;3.60;1.00
38239;DHT22;24035;48.900;9.188;2024-03-02T04:53:22;3.60;1.00
38239;DHT22;24035;48.900;9.188;2024-03-02T04:55:48;3.70;3.30
38239;DHT22;24035;48.900;9.188;2024-03-02T04:58:19;3.70;28.00
38239;DHT22;24035;48.900;9.188;2024-03-02T05:00:45;3.70;1.00
38239;DHT22;24035;48.900;9.188;2024-03-02T05:03:12;3.70;1.00
38239;DHT22;24035;48.900;9.188;2024-03-02T05:05:38;3.70;1.00
38239;DHT22;24035;48.900;9.188;2024-03-02T05:08:04;3.70;1.00
38239;DHT22;24035;48.900;9.188;2024-03-02T05:10:30;3.70;1.00
38239;DHT22;24035;48.900;9.188;2024-03-02T05:12:56;3.60;1.00
38239;DHT22;24035;48.900;9.188;2024-03-02T05:15:22;3.70;1.00
38239;DHT22;24035;48.900;9.188;2024-03-02T05:17:48;3.70;1.00
38239;DHT22;24035;48.900;9.188;2024-03-02T05:20:14;3.70;1.00
38239;DHT22;24035;48.900;9.188;2024-03-02T05:22:40;3.60;1.00
38239;DHT22;24035;48.900;9.188;2024-03-02T05:25:06;3.50;1.00
38239;DHT22;24035;48.900;9.188;2024-03-02T05:27:32;3.50;1.00
38239;DHT22;24035;48.900;9.188;2024-03-02T05:30:01;3.40;1.00
38239;DHT22;24035;48.900;9.188;2024-03-02T05:32:27;3.30;1.00
38239;DHT22;24035;48.900;9.188;2024-03-02T05:34:53;3.30;1.00
38239;DHT22;24035;48.900;9.188;2024-03-02T05:37:19;3.20;1.00
38239;DHT22;24035;48.900;9.188;2024-03-02T05:39:45;3.20;1.00
38239;DHT22;24035;48.900;9.188;2024-03-02T05:42:11;3.10;1.00
38239;DHT22;24035;48.900;9.188;2024-03-02T05:44:37;3.10;1.00
38239;DHT22;24035;48.900;9.188;2024-03-02T05:47:03;3.20;11.10
38239;DHT22;24035;48.900;9.188;2024-03-02T05:49:29;3.10;1.00
38239;DHT22;24035;48.900;9.188;2024-03-02T05:51:55;3.00;26.80
38239;DHT22;24035;48.900;9.188;2024-03-02T05:54:21;3.10;99.90
38239;DHT22;24035;48.900;9.188;2024-03-02T05:56:46;3.00;99.90
38239;DHT22;24035;48.900;9.188;2024-03-02T05:59:12;3.00;99.90
38239;DHT22;24035;48.900;9.188;2024-03-02T06:01:43;3.00;99.90
38239;DHT22;24035;48.900;9.188;2024-03-02T06:04:09;3.10;1.00
38239;DHT22;24035;48.900;9.188;2024-03-02T06:06:36;3.30;99.90
38239;DHT22;24035;48.900;9.188;2024-03-02T06:09:03;3.40;99.90
38239;DHT22;24035;48.900;9.188;2024-03-02T06:11:39;3.30;99.90
38239;DHT22;24035;48.900;9.188;2024-03-02T06:14:06;3.30;10.40
38239;DHT22;24035;48.900;9.188;2024-03-02T06:16:32;3.30;44.20
38239;DHT22;24035;48.900;9.188;2024-03-02T06:18:58;3.40;99.90
38239;DHT22;24035;48.900;9.188;2024-03-02T06:21:25;3.40;99.90
38239;DHT22;24035;48.900;9.188;2024-03-02T06:23:50;3.40;99.90
38239;DHT22;24035;48.900;9.188;2024-03-02T06:26:17;3.50;99.90
38239;DHT22;24035;48.900;9.188;2024-03-02T06:28:43;3.60;1.00
38239;DHT22;24035;48.900;9.188;2024-03-02T06:31:09;3.60;1.00
38239;DHT22;24035;48.900;9.188;2024-03-02T06:33:34;3.70;1.00
38239;DHT22;24035;48.900;9.188;2024-03-02T06:36:00;3.80;1.00
38239;DHT22;24035;48.900;9.188;2024-03-02T06:38:26;3.90;1.00
38239;DHT22;24035;48.900;9.188;2024-03-02T06:40:52;4.00;1.00
38239;DHT22;24035;48.900;9.188;2024-03-02T06:43:18;4.10;1.00
38239;DHT22;24035;48.900;9.188;2024-03-02T06:45:43;4.30;1.00
38239;DHT22;24035;48.900;9.188;2024-03-02T06:48:09;4.40;1.00
38239;DHT22;24035;48.900;9.188;2024-03-02T06:50:35;4.50;1.00
38239;DHT22;24035;48.900;9.188;2024-03-02T06:53:00;4.70;41.90
38239;DHT22;24035;48.900;9.188;2024-03-02T06:55:26;4.80;1.00
38239;DHT22;24035;48.900;9.188;2024-03-02T06:57:52;4.90;1.00
38239;DHT22;24035;48.900;9.188;2024-03-02T07:00:18;5.00;1.00
38239;DHT22;24035;48.900;9.188;2024-03-02T07:02:46;5.00;1.00
38239;DHT22;24035;48.900;9.188;2024-03-02T07:05:12;5.20;1.00
38239;DHT22;24035;48.900;9.188;2024-03-02T07:07:38;5.30;99.90
38239;DHT22;24035;48.900;9.188;2024-03-02T07:10:05;5.30;1.00
38239;DHT22;24035;48.900;9.188;2024-03-02T07:12:30;5.40;1.00
38239;DHT22;24035;48.900;9.188;2024-03-02T07:14:57;5.60;1.00
38239;DHT22;24035;48.900;9.188;2024-03-02T07:17:29;5.70;99.90
38239;DHT22;24035;48.900;9.188;2024-03-02T07:19:56;5.80;1.00
38239;DHT22;24035;48.900;9.188;2024-03-02T07:22:22;5.90;99.90
38239;DHT22;24035;48.900;9.188;2024-03-02T07:24:48;5.90;1.00
38239;DHT22;24035;48.900;9.188;2024-03-02T07:27:15;5.90;1.00
38239;DHT22;24035;48.900;9.188;2024-03-02T07:29:42;6.00;99.90
38239;DHT22;24035;48.900;9.188;2024-03-02T07:32:08;6.20;99.90
38239;DHT22;24035;48.900;9.188;2024-03-02T07:34:34;6.30;1.00
38239;DHT22;24035;48.900;9.188;2024-03-02T07:37:00;6.30;1.00
38239;DHT22;24035;48.900;9.188;2024-03-02T07:39:27;6.50;1.00
38239;DHT22;24035;48.900;9.188;2024-03-02T07:41:53;6.50;1.00
38239;DHT22;24035;48.900;9.188;2024-03-02T07:44:18;6.60;99.90
38239;DHT22;24035;48.900;9.188;2024-03-02T07:46:45;6.70;1.00
38239;DHT22;24035;48.900;9.188;2024-03-02T07:49:18;6.80;1.00
38239;DHT22;24035;48.900;9.188;2024-03-02T07:51:44;6.80;99.90
38239;DHT22;24035;48.900;9.188;2024-03-02T07:54:10;6.80;99.90
38239;DHT22;24035;48.900;9.188;2024-03-02T07:56:36;6.70;99.90
38239;DHT22;24035;48.900;9.188;2024-03-02T07:59:02;6.80;99.90
38239;DHT22;24035;48.900;9.188;2024-03-02T08:01:32;6.80;99.90
38239;DHT22;24035;48.900;9.188;2024-03-02T08:03:59;6.90;99.90
38239;DHT22;24035;48.900;9.188;2024-03-02T08:06:26;6.90;1.00
38239;DHT22;24035;48.900;9.188;2024-03-02T08:09:00;6.90;1.00
38239;DHT22;24035;48.900;9.188;2024-03-02T08:11:26;7.00;1.00
38239;DHT22;24035;48.900;9.188;2024-03-02T08:13:56;7.00;99.90
38239;DHT22;24035;48.900;9.188;2024-03-02T08:16:23;7.00;99.90
38239;DHT22;24035;48.900;9.188;2024-03-02T08:18:52;6.90;99.90
38239;DHT22;24035;48.900;9.188;2024-03-02T08:21:19;7.00;99.90
38239;DHT22;24035;48.900;9.188;2024-03-02T08:23:45;6.90;99.90
38239;DHT22;24035;48.900;9.188;2024-03-02T08:26:11;7.00;99.90
38239;DHT22;24035;48.900;9.188;2024-03-02T08:28:37;7.10;99.90
38239;DHT22;24035;48.900;9.188;2024-03-02T08:31:06;7.00;99.90
38239;DHT22;24035;48.900;9.188;2024-03-02T08:33:33;7.00;86.20
38239;DHT22;24035;48.900;9.188;2024-03-02T08:35:59;7.10;37.90
38239;DHT22;24035;48.900;9.188;2024-03-02T08:38:25;7.10;99.90
38239;DHT22;24035;48.900;9.188;2024-03-02T08:40:51;7.20;99.90
38239;DHT22;24035;48.900;9.188;2024-03-02T08:43:20;7.30;1.00
38239;DHT22;24035;48.900;9.188;2024-03-02T08:45:46;7.40;1.00
38239;DHT22;24035;48.900;9.188;2024-03-02T08:48:12;7.50;1.00
38239;DHT22;24035;48.900;9.188;2024-03-02T08:50:38;7.60;1.00
38239;DHT22;24035;48.900;9.188;2024-03-02T08:53:04;7.60;1.00
38239;DHT22;24035;48.900;9.188;2024-03-02T08:55:30;7.70;99.90
38239;DHT22;24035;48.900;9.188;2024-03-02T08:57:56;7.90;99.90
38239;DHT22;24035;48.900;9.188;2024-03-02T09:00:23;8.00;1.00
38239;DHT22;24035;48.900;9.188;2024-03-02T09:02:48;8.10;1.00
38239;DHT22;24035;48.900;9.188;2024-03-02T09:05:14;8.20;1.00
38239;DHT22;24035;48.900;9.188;2024-03-02T09:07:40;8.30;1.00
38239;DHT22;24035;48.900;9.188;2024-03-02T09:10:07;8.30;1.00
38239;DHT22;24035;48.900;9.188;2024-03-02T09:12:33;8.50;99.90
38239;DHT22;24035;48.900;9.188;2024-03-02T09:15:02;8.50;99.90
38239;DHT22;24035;48.900;9.188;2024-03-02T09:17:29;8.60;99.90
38239;DHT22;24035;48.900;9.188;2024-03-02T09:19:55;8.60;99.90
38239;DHT22;24035;48.900;9.188;2024-03-02T09:22:21;8.70;99.90
38239;DHT22;24035;48.900;9.188;2024-03-02T09:24:47;8.80;99.90
38239;DHT22;24035;48.900;9.188;2024-03-02T09:27:13;8.80;99.90
38239;DHT22;24035;48.900;9.188;2024-03-02T09:29:38;8.90;99.90
38239;DHT22;24035;48.900;9.188;2024-03-02T09:32:05;9.00;85.00
38239;DHT22;24035;48.900;9.188;2024-03-02T09:34:32;9.20;2.90
38239;DHT22;24035;48.900;9.188;2024-03-02T09:36:58;9.20;1.00
38239;DHT22;24035;48.900;9.188;2024-03-02T09:39:24;9.30;1.00
38239;DHT22;24035;48.900;9.188;2024-03-02T09:41:51;9.30;1.00
38239;DHT22;24035;48.900;9.188;2024-03-02T09:44:17;9.40;1.00
38239;DHT22;24035;48.900;9.188;2024-03-02T09:46:43;9.40;1.00
38239;DHT22;24035;48.900;9.188;2024-03-02T09:49:12;9.50;1.00
38239;DHT22;24035;48.900;9.188;2024-03-02T09:51:38;9.60;1.00
38239;DHT22;24035;48.900;9.188;2024-03-02T09:54:05;9.70;1.00
38239;DHT22;24035;48.900;9.188;2024-03-02T09:56:32;9.70;1.00
38239;DHT22;24035;48.900;9.188;2024-03-02T09:58:59;9.80;1.00
38239;DHT22;24035;48.900;9.188;2024-03-02T10:01:25;9.90;1.00
38239;DHT22;24035;48.900;9.188;2024-03-02T10:03:51;10.00;1.00
38239;DHT22;24035;48.900;9.188;2024-03-02T10:06:23;10.10;1.00
38239;DHT22;24035;48.900;9.188;2024-03-02T10:08:49;10.20;1.00
38239;DHT22;24035;48.900;9.188;2024-03-02T10:11:31;10.20;1.00
38239;DHT22;24035;48.900;9.188;2024-03-02T10:14:11;10.30;1.00
38239;DHT22;24035;48.900;9.188;2024-03-02T10:16:39;10.30;1.00
38239;DHT22;24035;48.900;9.188;2024-03-02T10:19:22;10.50;1.00
38239;DHT22;24035;48.900;9.188;2024-03-02T10:21:50;10.50;1.00
38239;DHT22;24035;48.900;9.188;2024-03-02T10:24:17;10.70;1.00
38239;DHT22;24035;48.900;9.188;2024-03-02T10:26:43;10.70;99.90
38239;DHT22;24035;48.900;9.188;2024-03-02T10:29:09;10.70;1.00
38239;DHT22;24035;48.900;9.188;2024-03-02T10:31:44;10.70;99.90
38239;DHT22;24035;48.900;9.188;2024-03-02T10:34:12;10.80;99.90
38239;DHT22;24035;48.900;9.188;2024-03-02T10:36:41;10.90;99.90
38239;DHT22;24035;48.900;9.188;2024-03-02T10:39:08;11.00;99.90
38239;DHT22;24035;48.900;9.188;2024-03-02T10:41:36;11.10;99.90
38239;DHT22;24035;48.900;9.188;2024-03-02T10:44:03;11.20;99.90
38239;DHT22;24035;48.900;9.188;2024-03-02T10:46:31;11.30;99.90
38239;DHT22;24035;48.900;9.188;2024-03-02T10:48:58;11.40;99.90
38239;DHT22;24035;48.900;9.188;2024-03-02T10:51:27;11.50;99.90
38239;DHT22;24035;48.900;9.188;2024-03-02T10:53:54;11.70;99.90
38239;DHT22;24035;48.900;9.188;2024-03-02T10:56:40;11.80;99.90
38239;DHT22;24035;48.900;9.188;2024-03-02T10:59:17;11.90;99.90
38239;DHT22;24035;48.900;9.188;2024-03-02T11:01:47;11.90;99.90
38239;DHT22;24035;48.900;9.188;2024-03-02T11:04:13;11.90;99.90
38239;DHT22;24035;48.900;9.188;2024-03-02T11:06:47;11.90;99.90
38239;DHT22;24035;48.900;9.188;2024-03-02T11:09:14;11.90;99.90
38239;DHT22;24035;48.900;9.188;2024-03-02T11:11:43;12.00;99.90
38239;DHT22;24035;48.900;9.188;2024-03-02T11:14:17;12.20;99.90
38239;DHT22;24035;48.900;9.188;2024-03-02T11:16:47;12.30;99.90
38239;DHT22;24035;48.900;9.188;2024-03-02T11:19:14;12.30;99.90
38239;DHT22;24035;48.900;9.188;2024-03-02T11:21:40;12.30;99.90
38239;DHT22;24035;48.900;9.188;2024-03-02T11:26:47;12.50;99.90
38239;DHT22;24035;48.900;9.188;2024-03-02T11:32:02;12.70;99.90
38239;DHT22;24035;48.900;9.188;2024-03-02T11:34:37;12.70;99.90
38239;DHT22;24035;48.900;9.188;2024-03-02T11:37:05;12.80;99.90
38239;DHT22;24035;48.900;9.188;2024-03-02T11:39:31;12.80;99.90
38239;DHT22;24035;48.900;9.188;2024-03-02T11:41:58;12.90;99.90
38239;DHT22;24035;48.900;9.188;2024-03-02T11:44:27;13.00;99.90
38239;DHT22;24035;48.900;9.188;2024-03-02T11:47:00;13.00;99.90
38239;DHT22;24035;48.900;9.188;2024-03-02T11:49:52;13.00;99.90
38239;DHT22;24035;48.900;9.188;2024-03-02T11:52:18;13.10;99.90
38239;DHT22;24035;48.900;9.188;2024-03-02T11:54:46;13.20;99.90
38239;DHT22;24035;48.900;9.188;2024-03-02T11:57:21;13.30;99.90
38239;DHT22;24035;48.900;9.188;2024-03-02T11:59:48;13.30;99.90
38239;DHT22;24035;48.900;9.188;2024-03-02T12:02:21;13.30;99.90
38239;DHT22;24035;48.900;9.188;2024-03-02T12:04:48;13.40;99.90
38239;DHT22;24035;48.900;9.188;2024-03-02T12:07:22;13.40;99.90
38239;DHT22;24035;48.900;9.188;2024-03-02T12:10:01;13.40;99.90
38239;DHT22;24035;48.900;9.188;2024-03-02T12:12:28;13.40;99.90
38239;DHT22;24035;48.900;9.188;2024-03-02T12:14:54;13.50;99.90
38239;DHT22;24035;48.900;9.188;2024-03-02T12:17:20;13.60;99.90
38239;DHT22;24035;48.900;9.188;2024-03-02T12:19:46;13.60;99.90
38239;DHT22;24035;48.900;9.188;2024-03-02T12:22:12;13.70;99.90
38239;DHT22;24035;48.900;9.188;2024-03-02T12:24:38;13.80;99.90
38239;DHT22;24035;48.900;9.188;2024-03-02T12:27:05;14.00;99.90
38239;DHT22;24035;48.900;9.188;2024-03-02T12:29:32;14.10;99.90
38239;DHT22;24035;48.900;9.188;2024-03-02T12:31:59;14.20;99.90
38239;DHT22;24035;48.900;9.188;2024-03-02T12:34:27;14.20;99.90
38239;DHT22;24035;48.900;9.188;2024-03-02T12:36:53;14.30;99.90
38239;DHT22;24035;48.900;9.188;2024-03-02T12:39:19;14.30;99.90
38239;DHT22;24035;48.900;9.188;2024-03-02T12:41:51;14.30;99.90
38239;DHT22;24035;48.900;9.188;2024-03-02T12:44:19;14.40;99.90
38239;DHT22;24035;48.900;9.188;2024-03-02T12:46:46;14.50;99.90
38239;DHT22;24035;48.900;9.188;2024-03-02T12:49:14;14.50;99.90
38239;DHT22;24035;48.900;9.188;2024-03-02T12:51:42;14.50;99.90
38239;DHT22;24035;48.900;9.188;2024-03-02T12:54:09;14.60;99.90
38239;DHT22;24035;48.900;9.188;2024-03-02T12:56:38;14.60;99.90
38239;DHT22;24035;48.900;9.188;2024-03-02T12:59:05;14.70;99.90
38239;DHT22;24035;48.900;9.188;2024-03-02T13:01:31;14.60;99.90
38239;DHT22;24035;48.900;9.188;2024-03-02T13:03:58;14.60;99.90
38239;DHT22;24035;48.900;9.188;2024-03-02T13:06:24;14.60;99.90
38239;DHT22;24035;48.900;9.188;2024-03-02T13:08:53;14.60;99.90
38239;DHT22;24035;48.900;9.188;2024-03-02T13:11:21;14.60;99.90
38239;DHT22;24035;48.900;9.188;2024-03-02T13:13:47;14.70;99.90
38239;DHT22;24035;48.900;9.188;2024-03-02T13:16:12;14.70;99.90
38239;DHT22;24035;48.900;9.188;2024-03-02T13:18:39;14.70;99.90
38239;DHT22;24035;48.900;9.188;2024-03-02T13:21:08;14.80;99.90
38239;DHT22;24035;48.900;9.188;2024-03-02T13:23:34;14.80;99.90
38239;DHT22;24035;48.900;9.188;2024-03-02T13:26:00;14.80;99.90
38239;DHT22;24035;48.900;9.188;2024-03-02T13:28:26;14.80;99.90
38239;DHT22;24035;48.900;9.188;2024-03-02T13:30:52;14.80;99.90
38239;DHT22;24035;48.900;9.188;2024-03-02T13:33:18;14.80;99.90
38239;DHT22;24035;48.900;9.188;2024-03-02T13:35:51;14.90;99.90
38239;DHT22;24035;48.900;9.188;2024-03-02T13:38:18;14.90;99.90
38239;DHT22;24035;48.900;9.188;2024-03-02T13:40:44;14.90;99.90
38239;DHT22;24035;48.900;9.188;2024-03-02T13:43:11;14.90;99.90
38239;DHT22;24035;48.900;9.188;2024-03-02T13:45:38;14.90;99.90
38239;DHT22;24035;48.900;9.188;2024-03-02T13:48:04;15.00;99.90
38239;DHT22;24035;48.900;9.188;2024-03-02T13:50:30;15.00;99.90
38239;DHT22;24035;48.900;9.188;2024-03-02T13:52:56;15.10;99.90
38239;DHT22;24035;48.900;9.188;2024-03-02T13:55:22;15.10;99.90
38239;DHT22;24035;48.900;9.188;2024-03-02T13:57:48;15.10;99.90
38239;DHT22;24035;48.900;9.188;2024-03-02T14:00:19;15.00;99.90
38239;DHT22;24035;48.900;9.188;2024-03-02T14:02:48;15.00;99.90
38239;DHT22;24035;48.900;9.188;2024-03-02T14:05:17;14.90;99.90
38239;DHT22;24035;48.900;9.188;2024-03-02T14:07:43;15.00;99.90
38239;DHT22;24035;48.900;9.188;2024-03-02T14:10:10;15.10;99.90
38239;DHT22;24035;48.900;9.188;2024-03-02T14:12:36;15.20;99.90
38239;DHT22;24035;48.900;9.188;2024-03-02T14:15:02;15.30;99.90
38239;DHT22;24035;48.900;9.188;2024-03-02T14:17:29;15.30;99.90
38239;DHT22;24035;48.900;9.188;2024-03-02T14:19:57;15.30;99.90
38239;DHT22;24035;48.900;9.188;2024-03-02T14:22:25;15.30;99.90
38239;DHT22;24035;48.900;9.188;2024-03-02T14:24:50;15.20;99.90
38239;DHT22;24035;48.900;9.188;2024-03-02T14:27:16;15.20;99.90
38239;DHT22;24035;48.900;9.188;2024-03-02T14:29:43;15.20;99.90
38239;DHT22;24035;48.900;9.188;2024-03-02T14:32:08;15.30;99.90
38239;DHT22;24035;48.900;9.188;2024-03-02T14:34:34;15.30;99.90
38239;DHT22;24035;48.900;9.188;2024-03-02T14:37:00;15.40;99.90
38239;DHT22;24035;48.900;9.188;2024-03-02T14:39:26;15.30;99.90
38239;DHT22;24035;48.900;9.188;2024-03-02T14:41:52;15.30;99.90
38239;DHT22;24035;48.900;9.188;2024-03-02T14:44:18;15.20;99.90
38239;DHT22;24035;48.900;9.188;2024-03-02T14:46:47;15.20;99.90
38239;DHT22;24035;48.900;9.188;2024-03-02T14:49:13;15.20;99.90
38239;DHT22;24035;48.900;9.188;2024-03-02T14:51:39;15.30;99.90
38239;DHT22;24035;48.900;9.188;2024-03-02T14:54:05;15.30;99.90
38239;DHT22;24035;48.900;9.188;2024-03-02T14:56:31;15.30;99.90
38239;DHT22;24035;48.900;9.188;2024-03-02T14:58:57;15.20;99.90
38239;DHT22;24035;48.900;9.188;2024-03-02T15:01:22;15.30;99.90
38239;DHT22;24035;48.900;9.188;2024-03-02T15:03:50;15.30;99.90
38239;DHT22;24035;48.900;9.188;2024-03-02T15:06:16;15.30;99.90
38239;DHT22;24035;48.900;9.188;2024-03-02T15:08:42;15.30;99.90
38239;DHT22;24035;48.900;9.188;2024-03-02T15:11:09;15.20;99.90
38239;DHT22;24035;48.900;9.188;2024-03-02T15:13:34;15.20;99.90
38239;DHT22;24035;48.900;9.188;2024-03-02T15:16:00;15.10;99.90
38239;DHT22;24035;48.900;9.188;2024-03-02T15:18:26;15.10;99.90
38239;DHT22;24035;48.900;9.188;2024-03-02T15:20:53;15.20;99.90
38239;DHT22;24035;48.900;9.188;2024-03-02T15:23:18;15.20;99.90
38239;DHT22;24035;48.900;9.188;2024-03-02T15:25:44;15.10;99.90
38239;DHT22;24035;48.900;9.188;2024-03-02T15:28:10;15.10;99.90
38239;DHT22;24035;48.900;9.188;2024-03-02T15:30:36;15.10;99.90
38239;DHT22;24035;48.900;9.188;2024-03-02T15:33:02;15.00;99.90
38239;DHT22;24035;48.900;9.188;2024-03-02T15:35:28;14.90;99.90
38239;DHT22;24035;48.900;9.188;2024-03-02T15:37:54;14.90;99.90
38239;DHT22;24035;48.900;9.188;2024-03-02T15:40:20;14.80;99.90
38239;DHT22;24035;48.900;9.188;2024-03-02T15:42:46;14.70;99.90
38239;DHT22;24035;48.900;9.188;2024-03-02T15:45:12;14.70;99.90
38239;DHT22;24035;48.900;9.188;2024-03-02T15:47:37;14.70;99.90
38239;DHT22;24035;48.900;9.188;2024-03-02T15:50:03;14.60;99.90
38239;DHT22;24035;48.900;9.188;2024-03-02T15:52:30;14.50;99.90